createdAt,value
2023-05-25T00:00:15.626Z,79.37
2023-05-25T00:02:47.450Z,79.24
2023-05-25T00:05:24.409Z,79.23
2023-05-25T00:08:15.445Z,79.36
2023-05-25T00:13:10.735Z,79.26
2023-05-25T00:15:38.879Z,79.19
2023-05-25T00:18:06.991Z,79.06
2023-05-25T00:20:35.732Z,79.02
2023-05-25T00:23:05.285Z,79.06
2023-05-25T00:25:33.303Z,79.00
2023-05-25T00:28:03.228Z,78.99
2023-05-25T00:30:31.543Z,78.86
2023-05-25T00:33:01.563Z,78.89
2023-05-25T00:35:29.875Z,79.09
2023-05-25T00:37:57.245Z,79.05
2023-05-25T00:40:25.429Z,78.97
2023-05-25T00:42:53.763Z,78.87
2023-05-25T00:45:21.732Z,78.77
2023-05-25T00:47:52.378Z,78.60
2023-05-25T00:50:25.909Z,78.41
2023-05-25T00:52:54.493Z,78.27
2023-05-25T00:57:52.013Z,78.12
2023-05-25T01:00:20.880Z,78.09
2023-05-25T01:02:52.844Z,78.05
2023-05-25T01:05:27.545Z,77.94
2023-05-25T01:07:59.535Z,77.86
2023-05-25T01:10:33.628Z,77.83
2023-05-25T01:13:03.197Z,77.94
2023-05-25T01:15:32.261Z,78.10
2023-05-25T01:18:01.446Z,78.25
2023-05-25T01:20:30.400Z,78.25
2023-05-25T01:23:12.741Z,78.34
2023-05-25T01:25:46.246Z,78.40
2023-05-25T01:28:29.058Z,78.67
2023-05-25T01:31:00.113Z,78.72
2023-05-25T01:39:00.412Z,78.89
2023-05-25T01:41:29.790Z,78.76
2023-05-25T01:44:00.510Z,78.75
2023-05-25T01:46:40.248Z,78.73
2023-05-25T01:49:36.871Z,78.88
2023-05-25T01:52:26.648Z,78.88
2023-05-25T01:57:22.260Z,78.63
2023-05-25T01:59:52.911Z,78.70
2023-05-25T02:02:34.382Z,78.54
2023-05-25T02:08:18.266Z,78.31
2023-05-25T02:10:55.234Z,78.26
2023-05-25T02:13:24.485Z,78.16
2023-05-25T02:15:59.820Z,78.20
2023-05-25T02:20:56.752Z,78.01
2023-05-25T02:23:29.037Z,77.98
2023-05-25T02:25:58.526Z,77.91
2023-05-25T02:28:27.600Z,77.82
2023-05-25T02:31:00.514Z,77.77
2023-05-25T02:33:39.327Z,77.64
2023-05-25T02:42:12.747Z,77.52
2023-05-25T02:44:48.580Z,77.77
2023-05-25T02:47:36.616Z,77.77
2023-05-25T02:50:06.048Z,77.86
2023-05-25T02:55:52.419Z,77.94
2023-05-25T02:58:24.091Z,78.16
2023-05-25T03:00:58.891Z,78.42
2023-05-25T03:03:32.556Z,78.41
2023-05-25T03:06:02.834Z,78.43
2023-05-25T03:08:31.384Z,78.47
2023-05-25T03:17:07.336Z,78.60
2023-05-25T03:22:34.899Z,78.66
2023-05-25T03:25:22.318Z,78.56
2023-05-25T03:30:57.800Z,78.45
2023-05-25T03:36:33.452Z,78.27
2023-05-25T03:41:28.253Z,78.13
2023-05-25T03:43:56.667Z,78.23
2023-05-25T03:46:28.452Z,78.26
2023-05-25T03:51:24.341Z,78.72
2023-05-25T03:53:52.443Z,78.82
2023-05-25T03:56:21.045Z,79.34
2023-05-25T03:58:49.333Z,79.33
2023-05-25T04:01:20.520Z,79.37
2023-05-25T04:03:54.716Z,79.46
2023-05-25T04:06:25.092Z,79.65
2023-05-25T04:08:55.054Z,79.72
2023-05-25T04:11:24.838Z,79.75
2023-05-25T04:13:54.987Z,79.99
2023-05-25T04:16:28.646Z,79.85
2023-05-25T04:19:01.912Z,79.95
2023-05-25T04:21:30.833Z,79.98
2023-05-25T04:29:19.197Z,80.41
2023-05-25T04:32:05.830Z,80.42
2023-05-25T04:34:47.800Z,80.42
2023-05-25T04:37:18.581Z,80.53
2023-05-25T04:39:46.637Z,80.72
2023-05-25T04:42:14.735Z,80.61
2023-05-25T04:44:44.189Z,80.36
2023-05-25T04:47:12.230Z,80.32
2023-05-25T04:49:44.032Z,79.87
2023-05-25T04:52:26.114Z,79.77
2023-05-25T04:54:56.325Z,80.06
2023-05-25T04:57:26.335Z,80.40
2023-05-25T04:59:55.680Z,80.15
2023-05-25T05:02:28.099Z,79.83
2023-05-25T05:04:56.458Z,79.69
2023-05-25T05:07:24.508Z,79.45
2023-05-25T05:09:54.580Z,79.32
2023-05-25T05:12:24.972Z,79.17
2023-05-25T05:14:55.897Z,79.06
2023-05-25T05:17:25.841Z,78.78
2023-05-25T05:23:11.210Z,78.04
2023-05-25T05:25:41.126Z,77.71
2023-05-25T05:29:07.450Z,77.53
2023-05-25T06:13:26.907Z,61.75
2023-05-25T06:16:02.117Z,61.50
2023-05-25T06:18:30.482Z,60.47
2023-05-25T06:20:58.401Z,60.39
2023-05-25T06:25:55.887Z,57.81
2023-05-25T06:28:23.851Z,57.03
2023-05-25T06:30:51.669Z,54.91
2023-05-25T06:33:19.625Z,53.55
2023-05-25T06:35:52.174Z,51.70
2023-05-25T06:38:20.504Z,50.42
2023-05-25T06:40:49.693Z,51.98
2023-05-25T07:29:00.065Z,49.87
2023-05-25T07:31:28.655Z,49.91
2023-05-25T07:33:57.221Z,49.74
2023-05-25T07:36:25.687Z,49.94
2023-05-25T07:38:53.962Z,49.87
2023-05-25T07:41:22.515Z,50.28
2023-05-25T07:43:51.986Z,50.44
2023-05-25T07:46:22.355Z,50.88
2023-05-25T07:48:52.761Z,50.78
2023-05-25T07:51:23.043Z,50.55
2023-05-25T07:53:52.162Z,50.69
2023-05-25T07:56:23.399Z,51.17
2023-05-25T07:58:53.596Z,50.13
2023-05-25T08:01:26.255Z,48.57
2023-05-25T08:03:58.340Z,47.97
2023-05-25T08:06:58.321Z,47.85
2023-05-25T08:09:40.789Z,46.53
2023-05-25T08:15:48.726Z,44.88
2023-05-25T08:18:31.342Z,44.64
2023-05-25T08:21:01.746Z,44.35
2023-05-25T08:23:39.673Z,42.63
2023-05-25T08:26:31.049Z,42.62
2023-05-25T08:28:51.708Z,43.09
2023-05-25T08:34:45.602Z,42.49
2023-05-25T08:37:29.460Z,41.97
2023-05-25T08:40:02.156Z,41.50
2023-05-25T08:42:44.606Z,39.57
2023-05-25T08:45:34.850Z,40.92
2023-05-25T08:48:08.051Z,41.15
2023-05-25T08:50:38.514Z,41.00
2023-05-25T08:53:11.496Z,40.80
2023-05-25T08:56:00.257Z,39.78
2023-05-25T08:58:34.603Z,39.78
2023-05-25T09:01:11.832Z,40.05
2023-05-25T09:07:10.185Z,40.75
2023-05-25T09:09:53.016Z,39.84
2023-05-25T09:15:57.413Z,40.14
2023-05-25T09:28:50.400Z,38.10
2023-05-25T09:31:24.304Z,38.26
2023-05-25T09:33:54.371Z,38.05
2023-05-25T09:36:33.116Z,38.11
2023-05-25T09:39:01.666Z,38.25
2023-05-25T09:41:30.004Z,38.79
2023-05-25T09:44:11.046Z,38.22
2023-05-25T09:46:38.869Z,38.15
2023-05-25T09:49:09.916Z,38.09
2023-05-25T09:51:38.827Z,37.49
2023-05-25T09:54:14.212Z,37.94
2023-05-25T09:56:46.039Z,37.39
2023-05-25T09:59:26.914Z,37.87
2023-05-25T10:02:08.155Z,36.84
2023-05-25T10:04:44.969Z,37.32
2023-05-25T10:07:29.725Z,36.40
2023-05-25T10:10:33.582Z,35.43
2023-05-25T10:13:11.097Z,34.13
2023-05-25T10:15:43.333Z,34.16
2023-05-25T10:18:27.076Z,33.68
2023-05-25T10:21:02.471Z,33.23
2023-05-25T10:23:43.721Z,32.47
2023-05-25T10:26:21.437Z,31.39
2023-05-25T10:28:51.999Z,31.10
2023-05-25T10:31:22.115Z,30.04
2023-05-25T10:33:54.080Z,30.66
2023-05-25T10:36:23.700Z,30.86
2023-05-25T10:38:53.117Z,30.86
2023-05-25T10:41:23.753Z,29.57
2023-05-25T10:43:53.224Z,29.26
2023-05-25T10:46:33.116Z,30.37
2023-05-25T10:49:01.994Z,30.01
2023-05-25T10:51:39.682Z,30.29
2023-05-25T10:54:08.040Z,30.07
2023-05-25T10:56:39.056Z,31.08
2023-05-25T10:59:22.862Z,30.96
2023-05-25T11:01:52.069Z,29.90
2023-05-25T11:04:22.412Z,29.61
2023-05-25T11:07:03.612Z,29.27
2023-05-25T11:09:32.247Z,30.00
2023-05-25T11:12:03.889Z,29.58
2023-05-25T11:14:44.774Z,30.05
2023-05-25T11:17:21.104Z,29.62
2023-05-25T11:19:54.788Z,29.46
2023-05-25T11:22:34.694Z,29.35
2023-05-25T11:25:24.049Z,29.28
2023-05-25T11:27:53.680Z,28.45
2023-05-25T11:30:27.018Z,28.24
2023-05-25T11:33:03.557Z,29.13
2023-05-25T11:38:40.933Z,30.04
2023-05-25T11:54:29.748Z,30.92
2023-05-25T11:57:04.291Z,30.94
2023-05-25T11:59:33.224Z,30.68
2023-05-25T12:02:53.107Z,31.05
2023-05-25T12:06:02.626Z,30.71
2023-05-25T12:08:36.099Z,29.95
2023-05-25T12:11:06.238Z,29.64
2023-05-25T12:30:31.420Z,29.56
2023-05-25T12:35:58.780Z,29.48
2023-05-25T12:41:24.862Z,30.90
2023-05-25T12:44:04.349Z,31.62
2023-05-25T12:46:40.025Z,31.92
2023-05-25T12:49:34.204Z,32.24
2023-05-25T12:52:04.187Z,32.29
2023-05-25T12:54:43.412Z,32.38
2023-05-25T13:00:17.886Z,32.48
2023-05-25T13:02:50.810Z,32.42
2023-05-25T13:05:25.208Z,32.14
2023-05-25T13:13:42.625Z,32.17
2023-05-25T13:16:13.176Z,31.64
2023-05-25T13:22:13.230Z,31.45
2023-05-25T13:24:47.536Z,31.65
2023-05-25T13:27:17.929Z,31.70
2023-05-25T13:33:21.742Z,31.78
2023-05-25T13:36:00.928Z,31.35
2023-05-25T13:38:30.984Z,31.92
2023-05-25T13:41:02.206Z,32.16
2023-05-25T13:43:39.456Z,32.50
2023-05-25T13:46:21.941Z,32.42
2023-05-25T13:48:44.226Z,31.38
2023-05-25T13:51:20.866Z,31.84
2023-05-25T13:53:49.831Z,32.20
2023-05-25T13:56:28.305Z,32.54
2023-05-25T13:59:05.004Z,32.95
2023-05-25T14:01:36.273Z,32.98
2023-05-25T14:04:31.450Z,32.51
2023-05-25T14:07:02.606Z,32.85
2023-05-25T14:09:31.455Z,33.27
2023-05-25T14:12:11.830Z,33.49
2023-05-25T14:14:40.968Z,33.50
2023-05-25T14:17:20.025Z,32.95
2023-05-25T14:19:49.297Z,32.86
2023-05-25T14:22:21.146Z,32.74
2023-05-25T14:24:52.399Z,32.71
2023-05-25T14:27:22.020Z,32.99
2023-05-25T14:29:52.010Z,33.54
2023-05-25T14:32:25.127Z,33.28
2023-05-25T14:34:56.037Z,33.63
2023-05-25T14:37:24.533Z,34.06
2023-05-25T14:39:52.879Z,34.02
2023-05-25T14:42:21.239Z,34.29
2023-05-25T14:44:50.939Z,34.31
2023-05-25T14:47:18.967Z,33.18
2023-05-25T14:49:47.989Z,33.33
2023-05-25T14:52:15.856Z,33.31
2023-05-25T14:54:44.422Z,33.62
2023-05-25T14:57:12.558Z,33.49
2023-05-25T14:59:40.745Z,32.83
2023-05-25T15:02:08.673Z,32.98
2023-05-25T15:04:38.166Z,32.91
2023-05-25T15:07:06.254Z,32.98
2023-05-25T15:09:36.126Z,33.10
2023-05-25T15:12:07.692Z,32.75
2023-05-25T15:14:37.497Z,32.91
2023-05-25T15:17:06.583Z,32.96
2023-05-25T15:19:34.858Z,32.84
2023-05-25T15:22:03.299Z,33.32
2023-05-25T15:24:31.419Z,33.51
2023-05-25T15:27:06.906Z,33.84
2023-05-25T15:29:42.274Z,33.95
2023-05-25T15:32:14.505Z,33.98
2023-05-25T15:35:14.618Z,34.02
2023-05-25T15:37:48.458Z,33.82
2023-05-25T15:40:30.430Z,33.98
2023-05-25T15:43:02.174Z,34.37
2023-05-25T15:45:30.981Z,34.65
2023-05-25T15:47:59.692Z,34.64
2023-05-25T15:50:35.205Z,35.47
2023-05-25T15:53:04.526Z,36.12
2023-05-25T15:58:56.522Z,36.89
2023-05-25T16:01:24.869Z,37.17
2023-05-25T16:03:54.999Z,37.28
2023-05-25T16:06:23.244Z,36.97
2023-05-25T16:08:51.246Z,36.58
2023-05-25T16:11:20.381Z,36.66
2023-05-25T16:52:28.197Z,43.69
2023-05-25T16:54:58.509Z,44.31
2023-05-25T17:37:12.735Z,60.17
2023-05-25T17:39:45.632Z,60.34
2023-05-25T17:42:13.459Z,60.67
2023-05-25T17:44:41.955Z,60.66
2023-05-25T17:47:11.188Z,61.32
2023-05-25T17:49:39.336Z,61.53
2023-05-25T17:52:07.264Z,61.28
2023-05-25T17:54:49.265Z,61.74
2023-05-25T17:57:18.805Z,62.28
2023-05-25T17:59:46.914Z,62.67
2023-05-25T18:02:16.013Z,62.94
2023-05-25T18:04:44.075Z,63.19
2023-05-25T18:13:41.543Z,63.64
2023-05-25T18:16:17.553Z,63.59
2023-05-25T18:18:52.856Z,64.20
2023-05-25T18:21:28.931Z,63.97
2023-05-25T18:30:28.551Z,64.68
2023-05-25T18:32:56.568Z,65.00
2023-05-25T18:35:24.732Z,65.37
2023-05-25T18:37:52.528Z,65.91
2023-05-25T18:40:22.888Z,66.75
2023-05-25T18:42:53.674Z,68.86
2023-05-25T18:45:25.793Z,67.76
2023-05-25T18:48:00.656Z,67.66
2023-05-25T18:50:30.378Z,67.77
2023-05-25T18:52:59.239Z,68.51
2023-05-25T18:55:27.321Z,68.59
2023-05-25T18:57:57.840Z,68.99
2023-05-25T19:00:26.026Z,69.09
2023-05-25T19:02:54.460Z,69.17
2023-05-25T19:05:23.982Z,69.96
2023-05-25T19:07:59.165Z,69.51
2023-05-25T19:10:24.939Z,70.40
2023-05-25T19:12:54.981Z,70.14
2023-05-25T19:15:23.334Z,70.07
2023-05-25T19:17:51.757Z,70.29
2023-05-25T19:20:24.789Z,70.31
2023-05-25T19:23:00.175Z,70.42
2023-05-25T19:25:31.782Z,70.57
2023-05-25T19:28:02.031Z,70.63
2023-05-25T19:30:35.617Z,70.33
2023-05-25T19:33:07.924Z,70.65
2023-05-25T19:35:41.564Z,70.36
2023-05-25T19:38:17.302Z,70.41
2023-05-25T19:40:45.244Z,70.06
2023-05-25T19:43:14.851Z,69.84
2023-05-25T19:45:50.456Z,69.98
2023-05-25T19:48:24.242Z,70.00
2023-05-25T19:50:54.190Z,69.84
2023-05-25T19:53:22.009Z,69.91
2023-05-25T19:55:50.137Z,69.90
2023-05-25T19:58:18.022Z,69.96
2023-05-25T20:00:48.874Z,69.93
2023-05-25T20:03:20.643Z,70.15
2023-05-25T20:05:51.854Z,70.11
2023-05-25T20:08:20.408Z,70.18
2023-05-25T20:10:50.979Z,70.35
2023-05-25T20:13:18.934Z,70.22
2023-05-25T20:15:47.963Z,70.41
2023-05-25T20:18:20.720Z,70.49
2023-05-25T20:20:49.077Z,70.30
2023-05-25T20:23:17.168Z,70.46
2023-05-25T20:25:45.387Z,70.51
2023-05-25T20:28:14.152Z,70.52
2023-05-25T20:30:42.089Z,70.43
2023-05-25T20:33:13.274Z,70.60
2023-05-25T20:35:41.644Z,70.39
2023-05-25T20:38:09.789Z,70.33
2023-05-25T20:40:37.756Z,70.13
2023-05-25T20:43:05.782Z,70.17
2023-05-25T20:45:33.950Z,70.28
2023-05-25T20:48:05.175Z,70.26
2023-05-25T20:50:33.251Z,70.25
2023-05-25T20:53:01.758Z,70.41
2023-05-25T20:55:30.874Z,70.50
2023-05-25T20:58:01.412Z,70.58
2023-05-25T21:00:31.427Z,70.86
2023-05-25T21:02:59.787Z,71.03
2023-05-25T21:05:30.259Z,71.07
2023-05-25T21:07:59.091Z,71.03
2023-05-25T21:10:27.024Z,71.23
2023-05-25T21:12:57.816Z,71.20
2023-05-25T21:15:26.411Z,71.26
2023-05-25T21:17:54.196Z,71.44
2023-05-25T21:20:22.333Z,71.62
2023-05-25T21:22:50.515Z,71.59
2023-05-25T21:25:22.836Z,71.83
2023-05-25T21:27:58.683Z,71.79
2023-05-25T21:30:27.148Z,71.90
2023-05-25T21:32:55.006Z,71.99
2023-05-25T21:35:22.924Z,72.21
2023-05-25T21:37:51.048Z,72.16
2023-05-25T21:40:19.364Z,72.27
2023-05-25T21:42:51.313Z,72.35
2023-05-25T21:45:20.266Z,72.60
2023-05-25T21:47:48.431Z,72.76
2023-05-25T21:50:17.555Z,73.03
2023-05-25T21:52:47.530Z,73.12
2023-05-25T21:55:15.600Z,73.12
2023-05-25T21:57:43.372Z,73.37
2023-05-25T22:00:12.373Z,73.44
2023-05-25T22:02:41.177Z,73.95
2023-05-25T22:05:09.268Z,73.85
2023-05-25T22:07:37.021Z,74.43
2023-05-25T22:10:05.968Z,74.23
2023-05-25T22:12:34.017Z,74.27
2023-05-25T22:15:01.957Z,74.43
2023-05-25T22:17:29.742Z,74.67
2023-05-25T22:20:07.553Z,74.79
2023-05-25T22:22:28.205Z,75.04
2023-05-25T22:24:59.480Z,75.19
2023-05-25T22:27:27.400Z,75.37
2023-05-25T22:29:55.409Z,75.56
2023-05-25T22:32:23.151Z,75.79
2023-05-25T22:34:51.023Z,75.91
2023-05-25T22:37:18.793Z,75.85
2023-05-25T22:39:46.715Z,75.96
2023-05-25T22:42:14.636Z,76.30
2023-05-25T22:44:42.418Z,76.55
2023-05-25T22:47:10.220Z,76.48
2023-05-25T22:49:41.228Z,76.44
2023-05-25T22:52:09.630Z,76.53
2023-05-25T22:54:37.242Z,76.57
2023-05-25T22:57:08.155Z,76.68
2023-05-25T22:59:37.063Z,76.72
2023-05-25T23:02:05.245Z,76.91
2023-05-25T23:04:36.046Z,77.07
2023-05-25T23:07:04.319Z,77.40
2023-05-25T23:09:32.117Z,77.43
2023-05-25T23:12:00.014Z,77.34
2023-05-25T23:14:29.928Z,77.36
2023-05-25T23:16:57.713Z,77.42
2023-05-25T23:19:27.332Z,77.85
2023-05-25T23:21:57.870Z,77.84
2023-05-25T23:24:25.797Z,77.75
2023-05-25T23:26:53.550Z,77.83
2023-05-25T23:29:21.313Z,77.81
2023-05-25T23:31:49.119Z,78.27
2023-05-25T23:34:16.857Z,77.88
2023-05-25T23:36:45.414Z,77.91
2023-05-25T23:39:13.255Z,77.82
2023-05-25T23:41:41.158Z,78.33
2023-05-25T23:44:09.074Z,77.99
2023-05-25T23:46:37.076Z,77.96
2023-05-25T23:49:04.820Z,77.89
2023-05-25T23:51:32.811Z,77.91
2023-05-25T23:54:00.775Z,77.87
2023-05-25T23:56:28.715Z,77.76
2023-05-25T23:58:56.661Z,77.77
